createdAt,value
2022-12-03T00:00:24.892Z,9.33
2022-12-03T00:02:51.462Z,8.20
2022-12-03T00:05:17.987Z,8.53
2022-12-03T00:07:44.425Z,8.60
2022-12-03T00:10:11.392Z,7.50
2022-12-03T00:12:37.704Z,8.80
2022-12-03T00:15:05.925Z,7.77
2022-12-03T00:17:32.355Z,8.00
2022-12-03T00:19:58.844Z,8.07
2022-12-03T00:22:25.214Z,7.70
2022-12-03T00:24:51.939Z,7.27
2022-12-03T00:27:18.597Z,7.90
2022-12-03T00:29:44.969Z,6.77
2022-12-03T00:32:11.459Z,7.90
2022-12-03T00:34:37.805Z,7.20
2022-12-03T00:37:04.156Z,7.50
2022-12-03T00:39:30.662Z,7.53
2022-12-03T00:41:56.988Z,6.90
2022-12-03T00:44:23.350Z,7.13
2022-12-03T00:46:49.696Z,6.57
2022-12-03T00:49:16.075Z,9.97
2022-12-03T00:51:42.536Z,7.57
2022-12-03T00:54:08.987Z,7.37
2022-12-03T00:56:35.487Z,7.90
2022-12-03T00:59:01.806Z,7.20
2022-12-03T01:01:28.155Z,7.57
2022-12-03T01:03:54.779Z,7.37
2022-12-03T01:06:21.122Z,7.70
2022-12-03T01:08:47.431Z,9.70
2022-12-03T01:11:32.584Z,7.20
2022-12-03T01:13:58.957Z,7.00
2022-12-03T01:16:25.319Z,6.70
2022-12-03T01:18:52.816Z,7.10
2022-12-03T01:21:19.741Z,8.00
2022-12-03T01:23:46.824Z,6.97
2022-12-03T01:26:13.306Z,7.30
2022-12-03T01:28:41.771Z,7.33
2022-12-03T01:31:27.480Z,6.77
2022-12-03T01:33:53.909Z,6.77
2022-12-03T01:36:20.353Z,6.67
2022-12-03T01:38:46.763Z,7.23
2022-12-03T01:41:13.101Z,6.93
2022-12-03T01:43:39.393Z,7.20
2022-12-03T01:46:06.061Z,7.40
2022-12-03T01:48:35.627Z,7.33
2022-12-03T01:51:02.215Z,6.77
2022-12-03T01:53:28.532Z,7.80
2022-12-03T01:55:55.253Z,8.00
2022-12-03T01:58:26.413Z,8.93
2022-12-03T02:00:52.749Z,7.80
2022-12-03T02:03:23.458Z,8.47
2022-12-03T02:05:50.002Z,6.40
2022-12-03T02:08:34.731Z,7.43
2022-12-03T02:11:22.147Z,7.53
2022-12-03T02:13:53.112Z,6.80
2022-12-03T02:16:19.582Z,7.63
2022-12-03T02:18:46.376Z,6.67
2022-12-03T02:21:24.914Z,9.23
2022-12-03T02:23:51.143Z,7.70
2022-12-03T02:26:17.751Z,7.40
2022-12-03T02:28:44.175Z,7.20
2022-12-03T02:31:11.044Z,7.10
2022-12-03T02:33:38.234Z,8.03
2022-12-03T02:36:05.103Z,7.83
2022-12-03T02:38:34.366Z,7.73
2022-12-03T02:41:04.788Z,7.03
2022-12-03T02:43:31.454Z,7.07
2022-12-03T02:46:00.656Z,8.47
2022-12-03T02:48:37.036Z,8.03
2022-12-03T02:51:06.827Z,7.87
2022-12-03T02:53:42.097Z,8.73
2022-12-03T02:56:08.967Z,7.87
2022-12-03T02:58:35.700Z,7.13
2022-12-03T03:01:04.377Z,7.00
2022-12-03T03:03:32.430Z,8.10
2022-12-03T03:06:02.526Z,8.30
2022-12-03T03:08:30.733Z,7.97
2022-12-03T03:11:00.384Z,8.17
2022-12-03T03:13:27.186Z,7.30
2022-12-03T03:15:53.657Z,7.80
2022-12-03T03:18:20.016Z,7.83
2022-12-03T03:20:46.327Z,7.67
2022-12-03T03:23:12.671Z,8.13
2022-12-03T03:25:42.481Z,8.67
2022-12-03T03:28:08.922Z,8.50
2022-12-03T03:30:36.594Z,7.80
2022-12-03T03:33:02.964Z,8.10
2022-12-03T03:35:29.382Z,9.57
2022-12-03T03:37:57.002Z,8.80
2022-12-03T03:40:23.334Z,7.60
2022-12-03T03:42:49.724Z,10.23
2022-12-03T03:45:16.482Z,10.97
2022-12-03T03:47:42.940Z,10.37
2022-12-03T03:50:10.925Z,13.23
2022-12-03T03:52:38.516Z,12.47
2022-12-03T03:55:06.062Z,12.53
2022-12-03T03:57:32.957Z,17.67
2022-12-03T04:00:00.034Z,11.50
2022-12-03T04:02:27.453Z,12.57
2022-12-03T04:04:54.788Z,11.27
2022-12-03T04:07:21.431Z,9.67
2022-12-03T04:09:47.740Z,9.30
2022-12-03T04:12:32.864Z,10.67
2022-12-03T04:14:59.649Z,9.33
2022-12-03T04:17:26.710Z,8.40
2022-12-03T04:19:53.126Z,10.30
2022-12-03T04:22:38.208Z,10.40
2022-12-03T04:25:23.382Z,8.60
2022-12-03T04:28:08.114Z,9.10
2022-12-03T04:30:34.473Z,9.37
2022-12-03T04:33:19.610Z,10.37
2022-12-03T04:35:46.064Z,9.00
2022-12-03T04:38:14.515Z,10.10
2022-12-03T04:41:00.043Z,9.67
2022-12-03T04:43:27.575Z,9.17
2022-12-03T04:45:54.116Z,11.50
2022-12-03T04:48:20.595Z,11.30
2022-12-03T04:50:46.931Z,10.20
2022-12-03T04:53:13.293Z,12.40
2022-12-03T04:55:39.611Z,11.30
2022-12-03T04:58:05.967Z,11.30
2022-12-03T05:00:32.376Z,10.97
2022-12-03T05:02:58.783Z,11.10
2022-12-03T05:05:25.247Z,10.23
2022-12-03T05:07:51.768Z,11.83
2022-12-03T05:10:18.167Z,12.77
2022-12-03T05:12:44.485Z,11.57
2022-12-03T05:15:11.190Z,12.53
2022-12-03T05:17:37.573Z,11.70
2022-12-03T05:20:22.899Z,13.07
2022-12-03T05:22:49.280Z,11.07
2022-12-03T05:25:15.743Z,12.67
2022-12-03T05:27:42.078Z,11.33
2022-12-03T05:30:08.995Z,11.77
2022-12-03T05:32:35.388Z,12.37
2022-12-03T05:35:01.845Z,11.50
2022-12-03T05:37:28.258Z,11.40
2022-12-03T05:39:54.597Z,11.67
2022-12-03T05:42:39.756Z,11.17
2022-12-03T05:45:06.689Z,13.80
2022-12-03T05:47:33.032Z,12.20
2022-12-03T05:49:59.484Z,14.53
2022-12-03T05:52:25.915Z,12.27
2022-12-03T05:54:52.595Z,13.20
2022-12-03T05:57:19.322Z,13.60
2022-12-03T05:59:45.631Z,14.13
2022-12-03T06:02:12.142Z,11.73
2022-12-03T06:04:38.763Z,11.70
2022-12-03T06:07:07.476Z,12.97
2022-12-03T06:09:37.800Z,11.47
2022-12-03T06:12:06.400Z,11.97
2022-12-03T06:14:34.665Z,12.17
2022-12-03T06:17:01.875Z,11.50
2022-12-03T06:19:28.290Z,11.57
2022-12-03T06:21:55.457Z,12.23
2022-12-03T06:24:21.807Z,12.80
2022-12-03T06:26:48.272Z,12.90
2022-12-03T06:29:14.628Z,15.40
2022-12-03T06:31:41.007Z,13.07
2022-12-03T06:34:07.463Z,12.53
2022-12-03T06:36:33.851Z,13.07
2022-12-03T06:39:00.148Z,12.13
2022-12-03T06:41:26.573Z,13.47
2022-12-03T06:43:52.864Z,14.70
2022-12-03T06:46:19.233Z,11.90
2022-12-03T06:48:45.688Z,11.90
2022-12-03T06:51:11.980Z,12.83
2022-12-03T06:53:38.393Z,14.33
2022-12-03T06:56:05.145Z,13.77
2022-12-03T06:58:31.529Z,10.17
2022-12-03T07:00:57.910Z,13.83
2022-12-03T07:03:24.320Z,10.93
2022-12-03T07:05:50.731Z,13.80
2022-12-03T07:08:17.159Z,11.77
2022-12-03T07:10:43.706Z,10.90
2022-12-03T07:13:10.138Z,12.60
2022-12-03T07:15:36.494Z,11.47
2022-12-03T07:18:02.956Z,11.30
2022-12-03T07:20:29.289Z,12.13
2022-12-03T07:22:55.645Z,12.93
2022-12-03T07:25:23.727Z,11.67
2022-12-03T07:27:50.250Z,10.50
2022-12-03T07:30:31.660Z,11.77
2022-12-03T07:32:58.030Z,10.30
2022-12-03T07:35:24.388Z,11.53
2022-12-03T07:37:50.876Z,10.20
2022-12-03T07:40:17.419Z,12.82
2022-12-03T07:42:43.743Z,9.63
2022-12-03T07:45:10.567Z,11.23
2022-12-03T07:47:36.889Z,11.33
2022-12-03T07:50:03.339Z,11.50
2022-12-03T07:52:30.070Z,11.93
2022-12-03T07:54:56.609Z,11.67
2022-12-03T07:57:23.033Z,11.37
2022-12-03T07:59:49.454Z,9.33
2022-12-03T08:02:20.995Z,11.70
2022-12-03T08:04:48.114Z,11.43
2022-12-03T08:07:14.795Z,10.43
2022-12-03T08:09:42.068Z,10.40
2022-12-03T08:12:16.942Z,12.23
2022-12-03T08:14:43.831Z,10.37
2022-12-03T08:17:12.941Z,12.07
2022-12-03T08:19:41.992Z,11.83
2022-12-03T08:22:14.165Z,10.43
2022-12-03T08:24:41.207Z,12.37
2022-12-03T08:27:19.460Z,11.87
2022-12-03T08:29:46.222Z,11.40
2022-12-03T08:32:13.058Z,11.90
2022-12-03T08:34:42.587Z,10.83
2022-12-03T08:37:16.585Z,11.87
2022-12-03T08:39:50.811Z,11.33
2022-12-03T08:42:42.459Z,10.93
2022-12-03T08:45:32.025Z,10.80
2022-12-03T08:48:00.538Z,10.83
2022-12-03T08:50:39.865Z,9.83
2022-12-03T08:53:29.362Z,9.83
2022-12-03T08:56:01.861Z,9.93
2022-12-03T08:58:44.129Z,8.80
2022-12-03T09:01:10.596Z,10.43
2022-12-03T09:03:39.141Z,10.50
2022-12-03T09:06:05.774Z,10.00
2022-12-03T09:08:32.208Z,10.23
2022-12-03T09:10:58.495Z,14.97
2022-12-03T09:13:24.805Z,11.70
2022-12-03T09:15:51.270Z,10.30
2022-12-03T09:18:17.588Z,9.33
2022-12-03T09:20:43.906Z,9.70
2022-12-03T09:23:10.347Z,12.50
2022-12-03T09:25:36.778Z,9.93
2022-12-03T09:28:03.276Z,11.53
2022-12-03T09:30:29.679Z,10.87
2022-12-03T09:32:56.055Z,10.43
2022-12-03T09:35:23.051Z,10.90
2022-12-03T09:37:49.406Z,10.87
2022-12-03T09:40:15.860Z,10.00
2022-12-03T09:42:42.260Z,9.93
2022-12-03T09:45:12.275Z,8.63
2022-12-03T09:47:42.314Z,9.53
2022-12-03T09:50:14.063Z,9.50
2022-12-03T09:52:40.486Z,13.57
2022-12-03T09:55:24.537Z,10.17
2022-12-03T09:57:55.658Z,9.53
2022-12-03T10:00:29.243Z,10.57
2022-12-03T10:03:03.166Z,11.03
2022-12-03T10:05:29.938Z,11.47
2022-12-03T10:08:03.946Z,10.43
2022-12-03T10:10:30.698Z,11.13
2022-12-03T10:12:57.110Z,8.50
2022-12-03T10:15:23.863Z,8.43
2022-12-03T10:17:52.414Z,10.70
2022-12-03T10:20:21.164Z,10.60
2022-12-03T10:22:48.786Z,9.17
2022-12-03T10:25:20.950Z,10.80
2022-12-03T10:28:01.875Z,8.90
2022-12-03T10:30:29.418Z,9.30
2022-12-03T10:32:58.328Z,10.00
2022-12-03T10:35:36.295Z,10.07
2022-12-03T10:38:18.275Z,12.10
2022-12-03T10:40:44.991Z,8.57
2022-12-03T10:43:26.563Z,17.43
2022-12-03T10:46:03.469Z,9.90
2022-12-03T10:48:30.615Z,10.03
2022-12-03T10:51:01.476Z,9.53
2022-12-03T10:53:30.366Z,8.70
2022-12-03T10:55:59.687Z,10.00
2022-12-03T10:58:29.143Z,10.17
2022-12-03T11:00:57.386Z,9.47
2022-12-03T11:03:26.664Z,11.43
2022-12-03T11:05:55.079Z,10.10
2022-12-03T11:08:27.635Z,12.23
2022-12-03T11:11:06.972Z,14.37
2022-12-03T11:13:33.401Z,11.03
2022-12-03T11:16:01.236Z,11.53
2022-12-03T11:18:36.560Z,10.67
2022-12-03T11:21:02.926Z,10.77
2022-12-03T11:23:44.759Z,12.33
2022-12-03T11:26:18.451Z,11.70
2022-12-03T11:28:45.455Z,11.03
2022-12-03T11:31:36.732Z,12.73
2022-12-03T11:34:29.308Z,12.40
2022-12-03T11:37:10.967Z,11.60
2022-12-03T11:39:49.423Z,12.03
2022-12-03T11:42:27.761Z,11.23
2022-12-03T11:45:02.909Z,13.57
2022-12-03T11:47:36.872Z,10.63
2022-12-03T11:50:15.763Z,12.50
2022-12-03T11:52:45.139Z,12.90
2022-12-03T11:55:16.757Z,12.13
2022-12-03T11:57:43.393Z,13.27
2022-12-03T12:00:23.342Z,11.73
2022-12-03T12:02:52.162Z,12.93
2022-12-03T12:05:28.012Z,11.83
2022-12-03T12:07:55.336Z,10.93
2022-12-03T12:10:45.239Z,12.33
2022-12-03T12:13:30.398Z,12.00
2022-12-03T12:16:02.289Z,11.83
2022-12-03T12:18:55.735Z,12.20
2022-12-03T12:21:49.066Z,11.23
2022-12-03T12:24:40.764Z,12.33
2022-12-03T12:27:08.791Z,14.00
2022-12-03T12:29:37.393Z,13.33
2022-12-03T12:32:16.159Z,12.50
2022-12-03T12:34:48.390Z,11.90
2022-12-03T12:37:17.764Z,12.33
2022-12-03T12:39:44.145Z,16.20
2022-12-03T12:42:27.934Z,13.37
2022-12-03T12:44:54.714Z,13.80
2022-12-03T12:47:21.127Z,14.13
2022-12-03T12:49:51.692Z,13.83
2022-12-03T12:52:18.486Z,13.70
2022-12-03T12:54:44.998Z,13.43
2022-12-03T12:57:20.634Z,11.80
2022-12-03T12:59:47.337Z,13.60
2022-12-03T13:02:37.573Z,15.20
2022-12-03T13:05:04.539Z,14.97
2022-12-03T13:07:31.728Z,13.20
2022-12-03T13:10:00.366Z,13.73
2022-12-03T13:12:26.903Z,13.00
2022-12-03T13:14:59.174Z,13.43
2022-12-03T13:17:25.947Z,14.10
2022-12-03T13:20:03.579Z,17.20
2022-12-03T13:22:33.358Z,13.33
2022-12-03T13:25:32.585Z,16.97
2022-12-03T13:28:04.891Z,15.90
2022-12-03T13:30:31.330Z,17.40
2022-12-03T13:32:57.977Z,15.30
2022-12-03T13:35:35.323Z,16.10
2022-12-03T13:38:05.908Z,15.73
2022-12-03T13:40:35.858Z,15.63
2022-12-03T13:43:11.868Z,19.00
2022-12-03T13:45:43.831Z,16.47
2022-12-03T13:48:27.266Z,15.57
2022-12-03T13:50:54.216Z,14.33
2022-12-03T13:53:36.506Z,17.50
2022-12-03T13:56:26.392Z,16.93
2022-12-03T13:58:52.819Z,15.57
2022-12-03T14:01:19.253Z,18.70
2022-12-03T14:03:45.608Z,18.13
2022-12-03T14:06:11.917Z,15.43
2022-12-03T14:08:38.332Z,16.20
2022-12-03T14:11:04.826Z,15.93
2022-12-03T14:13:31.168Z,15.73
2022-12-03T14:15:57.634Z,15.10
2022-12-03T14:18:24.163Z,14.87
2022-12-03T14:20:50.659Z,15.40
2022-12-03T14:23:17.030Z,14.97
2022-12-03T14:25:46.358Z,17.60
2022-12-03T14:28:12.718Z,16.30
2022-12-03T14:30:39.156Z,14.90
2022-12-03T14:33:05.591Z,15.47
2022-12-03T14:35:31.917Z,16.03
2022-12-03T14:37:58.313Z,15.30
2022-12-03T14:40:24.700Z,15.13
2022-12-03T14:42:51.057Z,14.87
2022-12-03T14:45:17.420Z,16.13
2022-12-03T14:47:43.992Z,19.70
2022-12-03T14:50:14.168Z,15.33
2022-12-03T14:52:40.684Z,18.23
2022-12-03T14:55:07.375Z,17.67
2022-12-03T14:57:33.690Z,17.70
2022-12-03T15:00:00.147Z,19.17
2022-12-03T15:02:26.564Z,17.77
2022-12-03T15:04:52.986Z,17.27
2022-12-03T15:07:19.304Z,18.00
2022-12-03T15:09:45.650Z,17.70
2022-12-03T15:12:11.946Z,16.40
2022-12-03T15:14:38.381Z,17.27
2022-12-03T15:17:04.718Z,18.03
2022-12-03T15:19:31.079Z,19.63
2022-12-03T15:21:57.534Z,17.33
2022-12-03T15:24:24.147Z,17.80
2022-12-03T15:26:52.223Z,16.73
2022-12-03T15:29:19.831Z,19.13
2022-12-03T15:31:46.266Z,17.87
2022-12-03T15:34:16.099Z,18.73
2022-12-03T15:36:45.239Z,18.07
2022-12-03T15:39:11.590Z,18.10
2022-12-03T15:41:37.930Z,18.33
2022-12-03T15:44:04.442Z,18.17
2022-12-03T15:46:31.521Z,20.73
2022-12-03T15:48:58.679Z,16.60
2022-12-03T15:51:25.175Z,17.43
2022-12-03T15:53:51.961Z,18.83
2022-12-03T15:56:18.276Z,16.47
2022-12-03T15:58:44.691Z,19.23
2022-12-03T16:01:13.419Z,19.30
2022-12-03T16:03:40.347Z,18.83
2022-12-03T16:06:06.999Z,21.57
2022-12-03T16:08:33.364Z,22.13
2022-12-03T16:10:59.695Z,18.70
2022-12-03T16:13:26.128Z,19.90
2022-12-03T16:15:52.597Z,18.03
2022-12-03T16:18:19.023Z,17.40
2022-12-03T16:20:45.576Z,17.67
2022-12-03T16:23:12.271Z,20.33
2022-12-03T16:25:38.702Z,18.70
2022-12-03T16:28:05.117Z,17.80
2022-12-03T16:30:31.509Z,20.57
2022-12-03T16:32:57.877Z,17.67
2022-12-03T16:35:24.342Z,17.00
2022-12-03T16:37:50.726Z,19.30
2022-12-03T16:40:17.353Z,23.63
2022-12-03T16:42:43.825Z,20.93
2022-12-03T16:45:10.648Z,19.87
2022-12-03T16:47:37.061Z,19.40
2022-12-03T16:50:06.614Z,18.90
2022-12-03T16:52:33.519Z,17.80
2022-12-03T16:54:59.859Z,18.67
2022-12-03T16:57:31.753Z,16.70
2022-12-03T17:00:00.053Z,16.43
2022-12-03T17:02:27.601Z,18.87
2022-12-03T17:04:54.130Z,16.47
2022-12-03T17:07:20.620Z,18.60
2022-12-03T17:09:46.930Z,18.03
2022-12-03T17:12:13.429Z,17.30
2022-12-03T17:14:39.740Z,18.13
2022-12-03T17:17:06.056Z,17.87
2022-12-03T17:19:32.582Z,17.67
2022-12-03T17:21:59.708Z,17.20
2022-12-03T17:24:26.072Z,17.33
2022-12-03T17:26:52.448Z,19.13
2022-12-03T17:29:18.775Z,19.10
2022-12-03T17:31:45.221Z,19.57
2022-12-03T17:34:11.619Z,18.57
2022-12-03T17:36:37.987Z,18.07
2022-12-03T17:39:04.329Z,17.80
2022-12-03T17:41:30.714Z,17.47
2022-12-03T17:43:57.046Z,17.70
2022-12-03T17:46:23.415Z,17.57
2022-12-03T17:48:50.128Z,16.23
2022-12-03T17:51:16.498Z,17.20
2022-12-03T17:53:42.833Z,15.93
2022-12-03T17:56:09.447Z,15.07
2022-12-03T17:58:35.817Z,16.93
2022-12-03T18:01:03.227Z,17.57
2022-12-03T18:03:30.251Z,17.03
2022-12-03T18:05:56.719Z,18.43
2022-12-03T18:08:23.199Z,20.57
2022-12-03T18:10:49.706Z,16.50
2022-12-03T18:13:16.114Z,17.23
2022-12-03T18:15:42.529Z,17.57
2022-12-03T18:18:08.967Z,15.43
2022-12-03T18:20:35.646Z,15.53
2022-12-03T18:23:02.388Z,15.27
2022-12-03T18:25:29.202Z,15.00
2022-12-03T18:27:55.626Z,13.43
2022-12-03T18:30:22.539Z,15.30
2022-12-03T18:32:49.645Z,14.03
2022-12-03T18:35:16.103Z,14.97
2022-12-03T18:37:42.665Z,17.10
2022-12-03T18:40:17.863Z,15.33
2022-12-03T18:42:44.376Z,14.30
2022-12-03T18:45:11.471Z,15.50
2022-12-03T18:47:37.845Z,14.60
2022-12-03T18:50:06.052Z,12.67
2022-12-03T18:52:32.417Z,14.07
2022-12-03T18:54:58.933Z,14.10
2022-12-03T18:57:25.380Z,15.20
2022-12-03T18:59:51.912Z,13.97
2022-12-03T19:05:07.918Z,13.80
2022-12-03T19:07:34.439Z,13.37
2022-12-03T19:10:00.761Z,14.10
2022-12-03T19:12:27.183Z,15.53
2022-12-03T19:14:53.588Z,14.40
2022-12-03T19:17:21.254Z,13.87
2022-12-03T19:19:47.691Z,17.30
2022-12-03T19:22:13.995Z,13.83
2022-12-03T19:24:40.308Z,15.47
2022-12-03T19:27:06.793Z,15.47
2022-12-03T19:29:33.133Z,14.53
2022-12-03T19:31:59.499Z,15.30
2022-12-03T19:34:26.184Z,12.83
2022-12-03T19:36:52.576Z,14.07
2022-12-03T19:39:18.950Z,13.30
2022-12-03T19:41:45.444Z,14.83
2022-12-03T19:44:16.746Z,15.07
2022-12-03T19:46:43.799Z,14.67
2022-12-03T19:49:10.623Z,13.87
2022-12-03T19:51:37.616Z,16.33
2022-12-03T19:54:05.997Z,14.83
2022-12-03T19:56:32.901Z,18.73
2022-12-03T19:58:59.726Z,17.10
2022-12-03T20:01:28.626Z,14.57
2022-12-03T20:03:57.258Z,14.77
2022-12-03T20:06:26.423Z,15.27
2022-12-03T20:09:05.055Z,15.40
2022-12-03T20:11:33.901Z,15.73
2022-12-03T20:14:03.169Z,17.07
2022-12-03T20:16:30.056Z,15.37
2022-12-03T20:18:59.114Z,15.70
2022-12-03T20:21:25.856Z,15.57
2022-12-03T20:23:52.343Z,15.80
2022-12-03T20:26:20.399Z,15.60
2022-12-03T20:28:50.103Z,15.60
2022-12-03T20:31:19.519Z,16.70
2022-12-03T20:33:48.707Z,14.90
2022-12-03T20:36:17.316Z,18.27
2022-12-03T20:38:44.140Z,17.07
2022-12-03T20:41:14.815Z,17.23
2022-12-03T20:43:41.654Z,16.53
2022-12-03T20:46:15.710Z,16.77
2022-12-03T20:48:42.940Z,18.47
2022-12-03T20:51:11.792Z,15.80
2022-12-03T20:53:38.685Z,15.83
2022-12-03T20:56:06.065Z,16.83
2022-12-03T20:58:33.318Z,17.30
2022-12-03T21:01:15.401Z,15.60
2022-12-03T21:03:42.422Z,18.40
2022-12-03T21:06:10.306Z,17.97
2022-12-03T21:08:41.700Z,16.30
2022-12-03T21:11:14.649Z,16.70
2022-12-03T21:13:43.279Z,16.83
2022-12-03T21:16:12.525Z,15.73
2022-12-03T21:18:39.893Z,17.13
2022-12-03T21:21:06.815Z,18.23
2022-12-03T21:23:34.210Z,18.93
2022-12-03T21:26:04.799Z,15.40
2022-12-03T21:28:31.376Z,17.17
2022-12-03T21:31:02.822Z,18.03
2022-12-03T21:33:29.772Z,15.67
2022-12-03T21:35:56.713Z,16.33
2022-12-03T21:38:23.926Z,17.70
2022-12-03T21:40:50.539Z,15.97
2022-12-03T21:43:17.055Z,17.20
2022-12-03T21:45:43.637Z,16.83
2022-12-03T21:48:10.350Z,15.40
2022-12-03T21:50:36.811Z,16.93
2022-12-03T21:53:03.474Z,15.90
2022-12-03T21:55:29.849Z,17.67
2022-12-03T21:57:56.430Z,16.27
2022-12-03T22:00:22.795Z,17.77
2022-12-03T22:02:49.208Z,15.73
2022-12-03T22:05:15.940Z,17.67
2022-12-03T22:07:42.335Z,17.30
2022-12-03T22:10:10.384Z,16.07
2022-12-03T22:12:37.215Z,16.37
2022-12-03T22:15:03.987Z,16.00
2022-12-03T22:17:30.439Z,18.10
2022-12-03T22:19:57.134Z,15.43
2022-12-03T22:22:23.606Z,16.27
2022-12-03T22:24:50.014Z,16.83
2022-12-03T22:27:16.494Z,15.13
2022-12-03T22:29:42.923Z,16.83
2022-12-03T22:32:09.391Z,16.20
2022-12-03T22:34:35.824Z,14.83
2022-12-03T22:37:02.191Z,19.63
2022-12-03T22:39:28.538Z,16.43
2022-12-03T22:41:54.910Z,17.80
2022-12-03T22:44:21.355Z,16.23
2022-12-03T22:46:47.725Z,15.97
2022-12-03T22:49:14.195Z,16.40
2022-12-03T22:51:41.010Z,17.23
2022-12-03T22:54:07.522Z,18.37
2022-12-03T22:56:33.988Z,16.70
2022-12-03T22:59:00.481Z,19.10
2022-12-03T23:01:32.710Z,17.80
2022-12-03T23:04:00.346Z,17.53
2022-12-03T23:06:28.539Z,16.33
2022-12-03T23:08:55.851Z,17.90
2022-12-03T23:11:22.674Z,16.73
2022-12-03T23:13:49.259Z,17.57
2022-12-03T23:16:21.805Z,19.17
2022-12-03T23:18:48.868Z,17.40
2022-12-03T23:21:17.643Z,19.67
2022-12-03T23:23:44.001Z,18.37
2022-12-03T23:26:11.898Z,17.27
2022-12-03T23:28:41.000Z,18.07
2022-12-03T23:31:17.031Z,17.67
2022-12-03T23:33:43.891Z,24.17
2022-12-03T23:36:11.598Z,20.17
2022-12-03T23:38:38.733Z,18.33
2022-12-03T23:41:07.105Z,18.23
2022-12-03T23:43:33.816Z,19.80
2022-12-03T23:46:08.709Z,18.63
2022-12-03T23:48:35.749Z,17.83
2022-12-03T23:51:14.321Z,17.80
2022-12-03T23:53:41.319Z,19.50
2022-12-03T23:56:14.211Z,16.70
2022-12-03T23:58:40.701Z,19.00
